createdAt,value
2022-08-16T00:02:56.822Z,99428.20
2022-08-16T00:06:59.259Z,99424.47
2022-08-16T00:11:01.750Z,99422.77
2022-08-16T00:15:11.727Z,99422.61
2022-08-16T00:19:22.453Z,99417.72
2022-08-16T00:23:34.911Z,99412.32
2022-08-16T00:27:43.247Z,99409.77
2022-08-16T00:31:59.624Z,99407.60
2022-08-16T00:36:04.321Z,99410.80
2022-08-16T00:40:08.613Z,99407.81
2022-08-16T00:44:31.924Z,99405.48
2022-08-16T00:48:44.351Z,99400.23
2022-08-16T00:52:50.799Z,99401.19
2022-08-16T00:56:59.723Z,99397.84
2022-08-16T01:01:08.369Z,99397.46
2022-08-16T01:05:12.002Z,99397.55
2022-08-16T01:09:15.117Z,99398.76
2022-08-16T01:13:30.491Z,99396.16
2022-08-16T01:17:36.654Z,99397.86
2022-08-16T01:22:49.837Z,99393.56
2022-08-16T01:26:44.599Z,99395.25
2022-08-16T01:30:53.173Z,99393.32
2022-08-16T01:34:57.114Z,99385.45
2022-08-16T01:38:59.603Z,99380.38
2022-08-16T01:43:01.932Z,99382.69
2022-08-16T01:47:09.472Z,99384.17
2022-08-16T01:51:17.011Z,99375.90
2022-08-16T01:55:22.632Z,99377.59
2022-08-16T01:59:29.546Z,99370.98
2022-08-16T02:03:33.767Z,99375.19
2022-08-16T02:07:36.548Z,99377.23
2022-08-16T02:11:47.472Z,99376.04
2022-08-16T02:15:51.725Z,99372.80
2022-08-16T02:19:59.561Z,99368.93
2022-08-16T02:24:04.216Z,99367.02
2022-08-16T02:28:26.875Z,99368.19
2022-08-16T02:32:51.149Z,99366.30
2022-08-16T02:36:52.380Z,99363.69
2022-08-16T02:40:57.339Z,99366.08
2022-08-16T02:45:01.702Z,99361.11
2022-08-16T02:49:07.256Z,99359.31
2022-08-16T02:53:11.466Z,99363.96
2022-08-16T02:57:14.260Z,99371.44
2022-08-16T03:01:24.642Z,99369.45
2022-08-16T03:05:30.921Z,99366.61
2022-08-16T03:09:35.818Z,99369.52
2022-08-16T03:13:40.262Z,99371.54
2022-08-16T03:17:52.982Z,99372.32
2022-08-16T03:21:57.092Z,99369.16
2022-08-16T03:26:02.558Z,99367.82
2022-08-16T03:30:18.736Z,99368.66
2022-08-16T03:34:42.051Z,99365.77
2022-08-16T03:38:54.690Z,99366.84
2022-08-16T03:43:19.240Z,99369.56
2022-08-16T03:47:22.606Z,99373.14
2022-08-16T03:51:26.095Z,99378.92
2022-08-16T03:55:45.506Z,99380.66
2022-08-16T03:59:48.807Z,99382.05
2022-08-16T04:03:55.214Z,99383.96
2022-08-16T04:07:58.168Z,99387.55
2022-08-16T04:12:03.310Z,99392.71
2022-08-16T04:16:27.254Z,99398.98
2022-08-16T04:20:36.922Z,99397.80
2022-08-16T04:24:41.165Z,99398.90
2022-08-16T04:29:21.126Z,99399.19
2022-08-16T04:33:26.884Z,99400.60
2022-08-16T04:37:32.190Z,99393.73
2022-08-16T04:41:49.506Z,99395.15
2022-08-16T04:46:02.985Z,99394.15
2022-08-16T04:50:18.475Z,99395.56
2022-08-16T04:54:35.993Z,99399.45
2022-08-16T04:58:47.021Z,99398.42
2022-08-16T05:02:56.452Z,99401.50
2022-08-16T05:07:01.684Z,99408.48
2022-08-16T05:11:31.875Z,99409.41
2022-08-16T05:15:36.851Z,99415.63
2022-08-16T05:19:39.361Z,99416.16
2022-08-16T05:23:55.828Z,99413.25
2022-08-16T05:28:01.713Z,99418.13
2022-08-16T05:32:32.286Z,99418.11
2022-08-16T05:36:34.301Z,99423.59
2022-08-16T05:40:41.043Z,99416.76
2022-08-16T05:45:06.770Z,99423.05
2022-08-16T05:49:10.740Z,99420.27
2022-08-16T05:53:17.098Z,99412.45
2022-08-16T05:57:41.930Z,99407.90
2022-08-16T06:01:45.115Z,99406.13
2022-08-16T06:05:51.088Z,99409.15
2022-08-16T06:09:57.927Z,99408.29
2022-08-16T06:14:05.437Z,99412.02
2022-08-16T06:18:14.636Z,99415.67
2022-08-16T06:22:37.326Z,99419.09
2022-08-16T06:26:44.594Z,99417.38
2022-08-16T06:31:02.002Z,99414.95
2022-08-16T06:35:06.317Z,99420.02
2022-08-16T06:39:10.152Z,99426.23
2022-08-16T06:43:44.514Z,99423.85
2022-08-16T06:47:56.522Z,99427.02
2022-08-16T06:52:03.428Z,99433.35
2022-08-16T06:56:14.003Z,99434.06
2022-08-16T07:00:34.318Z,99439.42
2022-08-16T07:04:43.409Z,99435.89
2022-08-16T07:08:54.889Z,99433.80
2022-08-16T07:13:04.224Z,99436.11
2022-08-16T07:17:18.784Z,99432.99
2022-08-16T07:21:26.394Z,99432.80
2022-08-16T07:25:28.757Z,99435.66
2022-08-16T07:29:32.115Z,99435.04
2022-08-16T07:33:52.502Z,99430.77
2022-08-16T07:38:00.962Z,99433.17
2022-08-16T07:42:35.008Z,99430.34
2022-08-16T07:46:40.171Z,99433.59
2022-08-16T07:51:01.576Z,99435.52
2022-08-16T07:55:09.506Z,99440.67
2022-08-16T07:59:12.015Z,99441.48
2022-08-16T08:03:18.797Z,99443.75
2022-08-16T08:07:29.042Z,99445.61
2022-08-16T08:11:37.415Z,99453.47
2022-08-16T08:15:52.498Z,99450.63
2022-08-16T08:19:59.579Z,99452.98
2022-08-16T08:24:09.432Z,99456.21
2022-08-16T08:28:16.931Z,99456.91
2022-08-16T08:32:57.400Z,99459.48
2022-08-16T08:36:43.498Z,99456.05
2022-08-16T08:40:56.842Z,99452.98
2022-08-16T08:44:59.304Z,99454.63
2022-08-16T08:49:02.417Z,99455.20
2022-08-16T08:53:12.976Z,99461.70
2022-08-16T08:57:18.399Z,99465.45
2022-08-16T09:01:56.544Z,99467.27
2022-08-16T09:06:04.036Z,99470.96
2022-08-16T09:10:20.536Z,99472.83
2022-08-16T09:14:32.654Z,99471.92
2022-08-16T09:18:36.689Z,99471.06
2022-08-16T09:22:42.558Z,99471.98
2022-08-16T09:26:46.931Z,99469.22
2022-08-16T09:30:55.664Z,99473.21
2022-08-16T09:35:00.900Z,99474.11
2022-08-16T09:39:04.003Z,99470.11
2022-08-16T09:43:06.561Z,99462.79
2022-08-16T09:47:10.318Z,99457.05
2022-08-16T09:51:13.919Z,99463.27
2022-08-16T09:55:16.249Z,99483.60
2022-08-16T09:59:20.685Z,99495.12
2022-08-16T10:03:24.557Z,99500.98
2022-08-16T10:07:44.351Z,99504.53
2022-08-16T10:12:11.549Z,99513.82
2022-08-16T10:16:24.686Z,99521.26
2022-08-16T10:20:28.576Z,99530.76
2022-08-16T10:24:31.578Z,99530.16
2022-08-16T10:28:40.162Z,99530.84
2022-08-16T10:32:44.904Z,99534.39
2022-08-16T10:36:47.318Z,99540.13
2022-08-16T10:40:56.678Z,99537.78
2022-08-16T10:44:58.862Z,99536.25
2022-08-16T10:49:05.149Z,99535.36
2022-08-16T10:53:08.437Z,99539.55
2022-08-16T10:57:12.097Z,99540.80
2022-08-16T11:01:43.761Z,99542.20
2022-08-16T11:11:04.877Z,99541.98
2022-08-16T11:14:28.942Z,99537.92
2022-08-16T11:19:03.080Z,99536.54
2022-08-16T11:22:55.748Z,99535.10
2022-08-16T11:31:21.660Z,99528.02
2022-08-16T11:39:50.237Z,99526.36
2022-08-16T11:44:52.806Z,99527.04
2022-08-16T11:48:48.105Z,99522.20
2022-08-16T11:52:50.412Z,99519.80
2022-08-16T11:56:57.699Z,99529.77
2022-08-16T12:01:00.692Z,99534.68
2022-08-16T12:05:04.365Z,99531.30
2022-08-16T12:09:19.573Z,99521.36
2022-08-16T12:13:22.564Z,99518.12
2022-08-16T12:17:26.177Z,99517.63
2022-08-16T12:21:57.691Z,99513.86
2022-08-16T12:25:52.305Z,99520.23
2022-08-16T12:29:58.334Z,99518.92
2022-08-16T12:34:01.218Z,99510.52
2022-08-16T12:38:08.620Z,99504.00
2022-08-16T12:42:35.277Z,99498.27
2022-08-16T12:46:38.628Z,99493.20
2022-08-16T12:50:41.486Z,99484.55
2022-08-16T12:54:43.818Z,99482.98
2022-08-16T12:58:59.427Z,99477.65
2022-08-16T13:03:03.645Z,99465.69
2022-08-16T13:07:08.591Z,99460.36
2022-08-16T13:11:13.245Z,99450.50
2022-08-16T13:15:25.482Z,99450.31
2022-08-16T13:19:49.759Z,99446.80
2022-08-16T13:23:55.731Z,99441.73
2022-08-16T13:28:03.338Z,99433.50
2022-08-16T13:32:08.270Z,99429.97
2022-08-16T13:36:21.199Z,99423.60
2022-08-16T13:40:30.478Z,99417.61
2022-08-16T13:44:48.735Z,99414.32
2022-08-16T13:48:56.119Z,99412.14
2022-08-16T13:53:01.278Z,99414.80
2022-08-16T13:57:04.114Z,99413.46
2022-08-16T14:01:09.453Z,99406.44
2022-08-16T14:05:12.794Z,99405.98
2022-08-16T14:09:23.024Z,99399.92
2022-08-16T14:13:26.341Z,99399.42
2022-08-16T14:17:29.736Z,99406.21
2022-08-16T14:21:45.643Z,99404.41
2022-08-16T14:25:59.542Z,99403.42
2022-08-16T14:30:02.177Z,99398.21
2022-08-16T14:34:05.246Z,99395.91
2022-08-16T14:38:08.329Z,99394.00
2022-08-16T14:42:14.192Z,99394.19
2022-08-16T14:46:18.529Z,99390.08
2022-08-16T14:50:25.015Z,99392.53
2022-08-16T14:54:31.802Z,99391.45
2022-08-16T14:58:36.696Z,99394.03
2022-08-16T15:02:41.418Z,99393.89
2022-08-16T15:06:44.457Z,99396.65
2022-08-16T15:10:47.202Z,99392.52
2022-08-16T15:15:56.294Z,99392.19
2022-08-16T15:20:03.248Z,99388.66
2022-08-16T15:24:16.436Z,99389.36
2022-08-16T15:28:30.507Z,99391.39
2022-08-16T15:32:34.047Z,99395.73
2022-08-16T15:36:36.330Z,99394.71
2022-08-16T15:40:54.943Z,99393.53
2022-08-16T15:45:11.483Z,99401.45
2022-08-16T15:49:15.316Z,99409.85
2022-08-16T15:53:23.013Z,99412.34
2022-08-16T15:57:27.287Z,99410.58
2022-08-16T16:01:30.177Z,99415.33
2022-08-16T16:05:37.074Z,99413.40
2022-08-16T16:09:39.363Z,99419.52
2022-08-16T16:13:43.196Z,99415.02
2022-08-16T16:17:46.816Z,99419.35
2022-08-16T16:21:54.240Z,99420.67
2022-08-16T16:25:59.322Z,99419.97
2022-08-16T16:30:33.168Z,99422.23
2022-08-16T16:34:35.406Z,99424.07
2022-08-16T16:38:39.226Z,99422.38
2022-08-16T16:42:45.234Z,99426.05
2022-08-16T16:46:56.502Z,99426.53
2022-08-16T16:51:00.318Z,99428.50
2022-08-16T16:55:05.982Z,99433.67
2022-08-16T16:59:11.551Z,99442.28
2022-08-16T17:03:17.194Z,99450.23
2022-08-16T17:07:23.933Z,99450.45
2022-08-16T17:11:27.381Z,99459.88
2022-08-16T17:15:36.614Z,99471.33
2022-08-16T17:19:41.484Z,99474.05
2022-08-16T17:23:58.532Z,99475.70
2022-08-16T17:28:02.950Z,99477.56
2022-08-16T17:32:34.020Z,99478.67
2022-08-16T17:36:52.917Z,99489.16
2022-08-16T17:40:58.959Z,99497.98
2022-08-16T17:45:02.365Z,99506.13
2022-08-16T17:49:05.107Z,99499.14
2022-08-16T17:53:08.492Z,99502.84
2022-08-16T17:57:11.230Z,99500.76
2022-08-16T18:01:14.453Z,99503.77
2022-08-16T18:05:18.180Z,99504.46
2022-08-16T18:09:21.065Z,99505.49
2022-08-16T18:13:23.788Z,99510.38
2022-08-16T18:17:26.745Z,99509.45
2022-08-16T18:21:47.402Z,99522.81
2022-08-16T18:25:58.820Z,99525.13
2022-08-16T18:30:01.034Z,99526.33
2022-08-16T18:34:04.013Z,99529.86
2022-08-16T18:38:06.281Z,99529.59
2022-08-16T18:42:14.789Z,99534.52
2022-08-16T18:46:17.166Z,99541.25
2022-08-16T18:50:22.240Z,99535.45
2022-08-16T18:54:25.982Z,99529.79
2022-08-16T18:58:29.904Z,99523.12
2022-08-16T19:02:56.966Z,99522.77
2022-08-16T19:06:55.061Z,99519.52
2022-08-16T19:10:57.428Z,99519.33
2022-08-16T19:14:59.941Z,99513.49
2022-08-16T19:19:02.280Z,99513.88
2022-08-16T19:23:10.643Z,99517.81
2022-08-16T19:27:15.194Z,99516.44
2022-08-16T19:31:24.318Z,99513.88
2022-08-16T19:35:26.797Z,99510.31
2022-08-16T19:39:32.648Z,99507.43
2022-08-16T19:43:36.744Z,99504.41
2022-08-16T19:47:39.279Z,99505.15
2022-08-16T19:51:41.678Z,99509.10
2022-08-16T19:55:45.984Z,99507.22
2022-08-16T19:59:50.090Z,99507.16
2022-08-16T20:03:52.790Z,99505.27
2022-08-16T20:08:00.991Z,99509.27
2022-08-16T20:12:12.001Z,99513.78
2022-08-16T20:16:16.179Z,99509.90
2022-08-16T20:20:23.042Z,99510.17
2022-08-16T20:24:35.241Z,99510.92
2022-08-16T20:28:54.205Z,99516.66
2022-08-16T20:32:57.458Z,99522.22
2022-08-16T20:37:04.773Z,99531.89
2022-08-16T20:45:29.298Z,99530.66
2022-08-16T20:49:31.667Z,99527.60
2022-08-16T20:53:36.660Z,99528.80
2022-08-16T20:57:42.716Z,99524.73
2022-08-16T21:01:46.762Z,99523.96
2022-08-16T21:06:02.782Z,99521.73
2022-08-16T21:10:09.487Z,99519.09
2022-08-16T21:14:12.471Z,99513.02
2022-08-16T21:18:16.404Z,99513.64
2022-08-16T21:22:22.863Z,99518.59
2022-08-16T21:26:25.575Z,99523.05
2022-08-16T21:30:38.427Z,99525.47
2022-08-16T21:34:44.838Z,99530.80
2022-08-16T21:38:47.208Z,99528.16
2022-08-16T21:42:52.331Z,99536.20
2022-08-16T21:46:54.907Z,99535.33
2022-08-16T21:50:58.071Z,99539.64
2022-08-16T21:55:02.219Z,99542.59
2022-08-16T21:59:16.160Z,99549.23
2022-08-16T22:03:25.003Z,99547.03
2022-08-16T22:07:27.417Z,99545.00
2022-08-16T22:11:30.521Z,99543.80
2022-08-16T22:15:33.828Z,99545.89
2022-08-16T22:19:39.215Z,99548.48
2022-08-16T22:23:42.036Z,99546.30
2022-08-16T22:27:47.540Z,99547.05
2022-08-16T22:31:50.362Z,99550.17
2022-08-16T22:36:01.888Z,99552.70
2022-08-16T22:40:06.120Z,99549.77
2022-08-16T22:44:10.635Z,99544.64
2022-08-16T22:48:15.427Z,99543.44
2022-08-16T22:52:56.062Z,99540.14
2022-08-16T22:56:42.030Z,99540.27
2022-08-16T23:00:44.781Z,99536.39
2022-08-16T23:04:50.148Z,99538.98
2022-08-16T23:08:53.632Z,99539.71
2022-08-16T23:13:04.359Z,99532.20
2022-08-16T23:17:11.403Z,99529.17
2022-08-16T23:21:44.171Z,99533.25
2022-08-16T23:26:03.219Z,99529.57
2022-08-16T23:30:55.539Z,99524.48
2022-08-16T23:35:05.192Z,99517.58
2022-08-16T23:39:31.109Z,99521.19
2022-08-16T23:44:56.122Z,99516.31
2022-08-16T23:49:57.793Z,99514.80
2022-08-16T23:53:20.514Z,99518.08
2022-08-16T23:57:36.131Z,99514.14
